Warren, Rhode Island
Current Conditions -  °F | °C
As of 11:51 PM on Wednesday 22 Oct 2014 (Local Time) from KPVD Reporting Station
Light Rain Light Rain  
Wind Chill: 52°   Ceiling: 1100
Heat Index: 52°   Visibility: 6mi
Dew Point: 50°   Wind: 15mph
Humidity: 93%   Direction: 10°N
Pressure: 29.74"   Gusts: 29mph
Location:  41.73°N, 71.28°W
Report Text: KPVD 230351Z 01013G25KT 6SM -RA BR BKN011 OVC020 11/10 A2974 RMK AO2 PK WND 01035/0324 SLP072 LAST AUGMENTED P0012 T01110100
Loading
Personal Weather Stations






























Interactive Weather Map
Tropical Storm Tracking
New forecast layout! Learn more

10-Day Weather Forecast

Advertisements
Track Severe Weather on mobile